Time;durP1;ratioP1;P1;durP2;ratioP2;P2;SDS_P1;SDS_P2;PMS_P1;PMS_P2;Temp;Humidity;BMP_temperature;BMP_pressure;BME280_temperature;BME280_humidity;BME280_pressure;Samples;Min_cycle;Max_cycle;Signal;HPM_P1;HPM_P2
2021/08/28 00:00:17;;;;;;;3.95;2.78;;;;;;;12.97;100.00;100681.31;5023546;28;20110;-79
2021/08/28 00:02:44;;;;;;;8.07;2.70;;;;;;;12.87;100.00;100675.81;5015513;28;20448;-79
2021/08/28 00:05:12;;;;;;;3.58;2.42;;;;;;;12.84;100.00;100681.31;5027069;28;20397;-80
2021/08/28 00:07:39;;;;;;;3.08;2.28;;;;;;;12.86;100.00;100680.25;4996480;28;20513;-79
2021/08/28 00:10:07;;;;;;;8.57;2.97;;;;;;;12.86;100.00;100682.88;5038071;28;20069;-78
2021/08/28 00:12:35;;;;;;;5.72;2.80;;;;;;;12.90;100.00;100681.75;5030574;28;20145;-79
2021/08/28 00:15:03;;;;;;;5.20;3.17;;;;;;;12.83;100.00;100680.47;5025942;28;20408;-80
2021/08/28 00:17:34;;;;;;;3.35;2.80;;;;;;;12.84;100.00;100681.31;5037364;28;20140;-78
2021/08/28 00:20:03;;;;;;;3.50;3.20;;;;;;;12.81;100.00;100681.50;5020957;28;20045;-78
2021/08/28 00:22:31;;;;;;;4.85;3.42;;;;;;;12.83;100.00;100682.25;5032647;28;20074;-80
2021/08/28 00:24:58;;;;;;;4.72;3.35;;;;;;;12.84;100.00;100679.53;5033263;28;20049;-79
2021/08/28 00:27:25;;;;;;;7.50;3.47;;;;;;;12.82;100.00;100683.19;5023694;28;20060;-80
2021/08/28 00:29:52;;;;;;;4.18;2.95;;;;;;;12.83;100.00;100674.31;5014973;28;20056;-79
2021/08/28 00:32:20;;;;;;;7.10;3.40;;;;;;;12.82;100.00;100680.56;5033811;28;20643;-80
2021/08/28 00:34:47;;;;;;;3.67;3.38;;;;;;;12.82;100.00;100681.41;5013769;28;20072;-78
2021/08/28 00:37:14;;;;;;;6.35;4.28;;;;;;;12.82;100.00;100681.41;5035809;28;20053;-78
2021/08/28 00:39:41;;;;;;;9.05;3.90;;;;;;;12.87;100.00;100676.66;5030640;28;20049;-79
2021/08/28 00:42:08;;;;;;;5.82;3.85;;;;;;;12.84;100.00;100681.31;5053832;28;20563;-78
2021/08/28 00:44:42;;;;;;;6.20;3.97;;;;;;;12.81;100.00;100684.16;5017230;28;20616;-78
2021/08/28 00:47:15;;;;;;;7.22;4.35;;;;;;;12.80;100.00;100682.47;5054369;28;20068;-78
2021/08/28 00:49:48;;;;;;;8.35;5.28;;;;;;;12.80;100.00;100672.75;4993297;28;20062;-80
2021/08/28 00:52:16;;;;;;;5.13;4.57;;;;;;;12.86;100.00;100676.75;4990077;28;20045;-79
2021/08/28 00:54:44;;;;;;;6.88;5.28;;;;;;;12.77;100.00;100672.09;5053326;28;20062;-81
2021/08/28 00:57:12;;;;;;;6.10;5.38;;;;;;;12.82;100.00;100676.13;5045364;28;20136;-76
2021/08/28 00:59:40;;;;;;;9.23;5.60;;;;;;;12.80;100.00;100677.19;5028492;28;20136;-78
2021/08/28 01:02:08;;;;;;;7.15;5.32;;;;;;;12.83;100.00;100680.47;5028732;28;20065;-78
2021/08/28 01:04:44;;;;;;;7.03;5.53;;;;;;;12.82;100.00;100675.28;5019329;28;20045;-80
2021/08/28 01:07:18;;;;;;;6.00;5.40;;;;;;;12.90;100.00;100670.31;5041535;28;20049;-79
2021/08/28 01:09:48;;;;;;;6.72;6.05;;;;;;;12.84;100.00;100679.53;5028880;28;20086;-79
2021/08/28 01:12:19;;;;;;;11.65;6.85;;;;;;;12.84;100.00;100676.03;5015199;28;20056;-79
2021/08/28 01:14:51;;;;;;;10.65;7.30;;;;;;;12.78;100.00;100681.72;5025641;28;20157;-79
2021/08/28 01:17:19;;;;;;;10.88;7.55;;;;;;;12.79;100.00;100680.75;4999461;28;20061;-79
2021/08/28 01:20:07;;;;;;;10.13;6.75;;;;;;;12.76;100.00;100678.34;5046099;28;20057;-79
2021/08/28 01:22:36;;;;;;;10.27;7.55;;;;;;;12.70;100.00;100682.25;5008870;28;20106;-78
2021/08/28 01:25:04;;;;;;;9.48;6.72;;;;;;;12.73;100.00;100687.31;5020986;28;20522;-78
2021/08/28 01:27:40;;;;;;;7.95;6.82;;;;;;;12.78;100.00;100679.06;5031383;28;20415;-78
2021/08/28 01:30:08;;;;;;;;;;;;;;;12.78;100.00;100681.72;5028737;28;20561;-79
2021/08/28 01:32:35;;;;;;;8.48;7.65;;;;;;;12.73;100.00;100675.91;5029915;28;20387;-79
2021/08/28 01:35:04;;;;;;;10.82;7.45;;;;;;;12.73;100.00;100683.81;5028689;28;20147;-79
2021/08/28 01:37:31;;;;;;;9.13;6.78;;;;;;;12.68;100.00;100684.13;5006469;28;20041;-78
2021/08/28 01:40:03;;;;;;;8.95;7.32;;;;;;;12.75;100.00;100689.88;5044368;28;20396;-79
2021/08/28 01:42:31;;;;;;;8.70;7.85;;;;;;;12.68;100.00;100686.78;5041348;28;20129;-78
2021/08/28 01:44:59;;;;;;;14.23;8.00;;;;;;;12.72;100.00;100685.63;5042211;28;20844;-81
2021/08/28 01:47:28;;;;;;;9.93;8.90;;;;;;;12.71;100.00;100685.72;5020500;28;20115;-80
2021/08/28 01:49:55;;;;;;;11.35;8.02;;;;;;;12.74;100.00;100690.78;5032012;28;20312;-80
2021/08/28 01:52:22;;;;;;;8.55;7.65;;;;;;;12.75;100.00;100690.72;5038745;28;20052;-77
2021/08/28 01:54:50;;;;;;;12.95;9.30;;;;;;;12.86;100.00;100697.91;5033053;28;20109;-80
2021/08/28 01:57:17;;;;;;;13.00;8.73;;;;;;;12.79;100.00;100696.59;5049437;28;20080;-77
2021/08/28 01:59:44;;;;;;;12.70;8.18;;;;;;;12.80;100.00;100699.16;5027915;28;20052;-79
2021/08/28 02:02:11;;;;;;;10.30;9.05;;;;;;;12.84;100.00;100695.38;5014954;28;20180;-79
2021/08/28 02:04:39;;;;;;;12.10;8.65;;;;;;;12.84;100.00;100705.94;5025403;28;20231;-80
2021/08/28 02:07:34;;;;;;;10.55;8.23;;;;;;;12.82;100.00;100701.69;5014140;28;20084;-80
2021/08/28 02:10:17;;;;;;;11.20;10.10;;;;;;;12.79;100.00;100710.69;5010643;28;20069;-78
2021/08/28 02:12:48;;;;;;;12.57;8.82;;;;;;;12.76;100.00;100705.59;5034408;28;20526;-79
2021/08/28 02:15:21;;;;;;;11.48;10.38;;;;;;;12.72;100.00;100711.19;5027551;28;20112;-80
2021/08/28 02:18:07;;;;;;;11.65;10.25;;;;;;;12.83;100.00;100695.47;5013205;28;20403;-80
2021/08/28 02:20:38;;;;;;;12.60;10.18;;;;;;;12.73;100.00;100702.31;5027240;28;20079;-78
2021/08/28 02:23:08;;;;;;;11.90;10.07;;;;;;;12.76;100.00;100702.97;5030085;28;20599;-79
2021/08/28 02:25:51;;;;;;;10.70;9.57;;;;;;;12.72;100.00;100704.09;5012228;28;20089;-80
2021/08/28 02:28:24;;;;;;;14.13;11.13;;;;;;;12.73;100.00;100699.66;5022337;28;20076;-79
2021/08/28 02:30:52;;;;;;;12.60;10.38;;;;;;;12.74;100.00;100696.06;5012465;28;20213;-79
2021/08/28 02:33:20;;;;;;;16.48;12.38;;;;;;;12.73;100.00;100699.66;5029379;28;20152;-77
2021/08/28 02:35:49;;;;;;;13.90;11.50;;;;;;;12.72;100.00;100695.34;5014079;28;20479;-78
2021/08/28 02:38:16;;;;;;;14.90;12.68;;;;;;;12.64;100.00;100696.69;5029647;28;20068;-78
2021/08/28 02:40:46;;;;;;;16.20;12.93;;;;;;;12.68;100.00;100699.97;5012621;28;20076;-80
2021/08/28 02:43:15;;;;;;;14.60;12.57;;;;;;;12.57;100.00;100692.78;5027549;28;20100;-80
2021/08/28 02:45:42;;;;;;;16.45;13.40;;;;;;;12.51;100.00;100697.59;5012706;28;20137;-78
2021/08/28 02:48:10;;;;;;;19.00;13.68;;;;;;;12.46;100.00;100692.63;5028968;28;20420;-80
2021/08/28 02:50:40;;;;;;;14.45;11.80;;;;;;;12.57;100.00;100694.56;5034321;28;20073;-79
2021/08/28 02:53:13;;;;;;;18.08;13.23;;;;;;;12.52;100.00;100697.53;5001813;28;20148;-78
2021/08/28 02:55:43;;;;;;;16.58;13.00;;;;;;;12.53;100.00;100701.00;5012627;28;20049;-80
2021/08/28 02:58:12;;;;;;;14.55;12.95;;;;;;;12.68;100.00;100706.09;5023571;28;20116;-79
2021/08/28 03:00:40;;;;;;;15.40;13.13;;;;;;;12.59;100.00;100696.16;5026457;28;20155;-80
2021/08/28 03:03:08;;;;;;;15.63;13.07;;;;;;;12.72;100.00;100709.41;5019341;28;20072;-79
2021/08/28 03:05:36;;;;;;;14.63;12.57;;;;;;;12.72;100.00;100705.91;4996121;28;20144;-78
2021/08/28 03:08:03;;;;;;;15.95;12.15;;;;;;;12.63;100.00;100702.91;5054564;28;20556;-80
2021/08/28 03:10:31;;;;;;;13.75;12.23;;;;;;;12.71;100.00;100705.06;5021289;28;20087;-78
2021/08/28 03:12:58;;;;;;;16.23;12.98;;;;;;;12.55;100.00;100702.56;5015685;28;20059;-78
2021/08/28 03:15:25;;;;;;;15.43;13.40;;;;;;;12.63;100.00;100702.09;5030810;28;20106;-78
2021/08/28 03:17:52;;;;;;;19.60;13.35;;;;;;;12.47;100.00;100699.59;4997596;28;20084;-79
2021/08/28 03:20:20;;;;;;;17.30;13.38;;;;;;;12.48;100.00;100703.94;5010381;28;20040;-78
2021/08/28 03:22:47;;;;;;;14.90;13.25;;;;;;;12.53;100.00;100701.00;5028905;28;20503;-79
2021/08/28 03:25:16;;;;;;;15.77;13.20;;;;;;;12.34;100.00;100711.94;5044355;28;20332;-78
2021/08/28 03:27:43;;;;;;;16.13;13.27;;;;;;;12.40;100.00;100706.25;5016653;28;20545;-77
2021/08/28 03:30:12;;;;;;;15.80;14.02;;;;;;;12.45;100.00;100698.00;5025268;28;20053;-77
2021/08/28 03:32:41;;;;;;;15.90;12.52;;;;;;;12.45;100.00;100708.56;5026192;28;20049;-76
2021/08/28 03:35:12;;;;;;;18.17;13.40;;;;;;;12.40;100.00;100708.88;5015278;28;20079;-78
2021/08/28 03:37:39;;;;;;;18.45;13.75;;;;;;;12.39;100.00;100709.81;5031786;28;20197;-78
2021/08/28 03:40:09;;;;;;;17.20;14.02;;;;;;;12.33;100.00;100711.06;5007837;28;20073;-77
2021/08/28 03:42:40;;;;;;;17.70;14.55;;;;;;;12.42;100.00;100713.09;5027847;28;20436;-79
2021/08/28 03:45:08;;;;;;;19.40;13.88;;;;;;;12.36;100.00;100710.84;5024776;28;20102;-78
2021/08/28 03:47:37;;;;;;;15.70;12.77;;;;;;;12.49;100.00;100715.34;5034252;28;20053;-78
2021/08/28 03:50:05;;;;;;;18.02;13.68;;;;;;;12.44;100.00;100712.16;5056665;28;20045;-78
2021/08/28 03:52:33;;;;;;;15.95;14.23;;;;;;;12.53;100.00;100709.78;5034439;28;20045;-78
2021/08/28 03:55:02;;;;;;;19.17;14.00;;;;;;;12.38;100.00;100713.38;5008524;28;20126;-77
2021/08/28 03:57:29;;;;;;;15.38;13.88;;;;;;;12.35;100.00;100709.19;5033156;28;20059;-78
2021/08/28 03:59:56;;;;;;;14.77;12.43;;;;;;;12.36;100.00;100710.84;5011101;28;20076;-79
2021/08/28 04:02:23;;;;;;;15.50;13.52;;;;;;;12.44;100.00;100712.16;5028718;28;20140;-80
2021/08/28 04:04:51;;;;;;;16.33;13.68;;;;;;;12.38;100.00;100713.38;5020106;28;20102;-79
2021/08/28 04:07:18;;;;;;;14.23;12.68;;;;;;;12.42;100.00;100714.88;5030152;28;20119;-79
2021/08/28 04:09:45;;;;;;;15.93;13.75;;;;;;;12.37;100.00;100715.19;5029718;28;20202;-80
2021/08/28 04:12:12;;;;;;;16.30;13.70;;;;;;;12.41;100.00;100724.59;5044067;28;20535;-78
2021/08/28 04:14:39;;;;;;;17.60;12.27;;;;;;;12.44;100.00;100725.38;5035710;28;20546;-79
2021/08/28 04:17:07;;;;;;;15.27;12.50;;;;;;;12.55;100.00;100726.34;5051131;28;20072;-78
2021/08/28 04:19:34;;;;;;;14.70;12.38;;;;;;;12.49;100.00;100724.13;5020473;28;20152;-79
2021/08/28 04:22:01;;;;;;;16.35;13.77;;;;;;;12.48;100.00;100729.50;5017246;28;20091;-77
2021/08/28 04:24:29;;;;;;;15.85;13.15;;;;;;;12.38;100.00;100729.22;5033786;28;20504;-79
2021/08/28 04:26:56;;;;;;;16.65;12.82;;;;;;;12.46;100.00;100723.47;5003200;28;20045;-79
2021/08/28 04:29:24;;;;;;;15.70;13.88;;;;;;;12.46;100.00;100726.09;5017606;28;20091;-79
2021/08/28 04:31:51;;;;;;;18.50;13.70;;;;;;;12.44;100.00;100728.00;5019540;28;20508;-78
2021/08/28 04:34:18;;;;;;;22.65;14.55;;;;;;;12.45;100.00;100730.53;5046378;28;20056;-79
2021/08/28 04:36:45;;;;;;;17.77;13.73;;;;;;;12.45;100.00;100733.19;5017165;28;20423;-78
2021/08/28 04:39:13;;;;;;;18.85;12.65;;;;;;;12.61;100.00;100730.41;5036856;28;20450;-79
2021/08/28 04:41:40;;;;;;;17.23;13.02;;;;;;;12.66;100.00;100731.78;5055302;28;20088;-79
2021/08/28 04:44:07;;;;;;;15.90;12.85;;;;;;;12.67;100.00;100733.47;5024727;28;20164;-78
2021/08/28 04:46:34;;;;;;;15.88;12.77;;;;;;;12.48;100.00;100734.78;5035763;28;20125;-81
2021/08/28 04:49:02;;;;;;;20.23;13.18;;;;;;;12.47;100.00;100723.34;5050218;28;20461;-80
2021/08/28 04:51:29;;;;;;;15.60;13.85;;;;;;;12.57;100.00;100727.09;5048803;28;20068;-79
2021/08/28 04:53:56;;;;;;;14.35;11.38;;;;;;;12.78;100.00;100731.91;5035230;28;20264;-80
2021/08/28 04:56:23;;;;;;;14.82;12.45;;;;;;;12.80;100.00;100733.50;5044901;28;20040;-78
2021/08/28 04:58:51;;;;;;;15.40;11.35;;;;;;;12.76;100.00;100736.47;5036855;28;20059;-78
2021/08/28 05:01:18;;;;;;;15.23;11.55;;;;;;;12.73;100.00;100736.66;5018352;28;20095;-78
2021/08/28 05:03:45;;;;;;;15.25;12.50;;;;;;;12.39;100.00;100731.78;5033843;28;20140;-78
2021/08/28 05:06:13;;;;;;;15.10;11.93;;;;;;;12.35;100.00;100737.38;5007750;28;20523;-78
2021/08/28 05:08:40;;;;;;;15.15;11.85;;;;;;;12.48;100.00;100742.72;5049499;28;20053;-77
2021/08/28 05:11:07;;;;;;;15.80;11.18;;;;;;;12.57;100.00;100745.59;5027872;28;20123;-78
2021/08/28 05:13:34;;;;;;;14.75;10.75;;;;;;;12.73;100.00;100748.06;5049415;28;20132;-78
2021/08/28 05:16:02;;;;;;;13.60;10.55;;;;;;;12.63;100.00;100749.63;5051294;28;20132;-79
2021/08/28 05:18:29;;;;;;;13.73;9.32;;;;;;;12.64;100.00;100752.16;5037298;28;20491;-78
2021/08/28 05:20:56;;;;;;;11.82;8.80;;;;;;;12.84;100.00;100748.22;5015322;28;20045;-78
2021/08/28 05:23:24;;;;;;;12.00;9.68;;;;;;;12.67;100.00;100751.97;5037454;28;20091;-79
2021/08/28 05:25:51;;;;;;;17.52;10.07;;;;;;;12.57;100.00;100752.66;5012319;28;20395;-80
2021/08/28 05:28:18;;;;;;;10.63;8.93;;;;;;;12.60;100.00;100747.16;5047666;28;20095;-77
2021/08/28 05:30:45;;;;;;;16.05;11.63;;;;;;;12.71;100.00;100746.50;5048092;28;20060;-77
2021/08/28 05:33:14;;;;;;;15.60;9.85;;;;;;;12.69;100.00;100754.50;5030634;28;20139;-78
2021/08/28 05:35:42;;;;;;;11.80;9.00;;;;;;;12.50;100.00;100759.28;5032858;28;20148;-81
2021/08/28 05:38:09;;;;;;;16.02;9.15;;;;;;;12.56;100.00;100751.81;5020066;28;20400;-79
2021/08/28 05:40:36;;;;;;;17.88;9.50;;;;;;;12.64;100.00;100759.22;5021039;28;20051;-78
2021/08/28 05:43:04;;;;;;;18.42;9.80;;;;;;;12.37;100.00;100751.31;5055635;28;20511;-77
2021/08/28 05:45:31;;;;;;;13.60;9.85;;;;;;;12.54;100.00;100753.72;5029235;28;20068;-79
2021/08/28 05:47:58;;;;;;;10.50;8.63;;;;;;;12.68;100.00;100763.38;5032433;28;20136;-79
2021/08/28 05:50:25;;;;;;;16.80;8.90;;;;;;;12.76;100.00;100755.78;5021221;28;20060;-78
2021/08/28 05:52:53;;;;;;;10.20;8.10;;;;;;;12.95;100.00;100755.41;5035188;28;20096;-78
2021/08/28 05:55:20;;;;;;;9.05;6.95;;;;;;;13.18;100.00;100760.00;5023250;28;20049;-78
2021/08/28 05:57:47;;;;;;;8.50;6.88;;;;;;;13.32;100.00;100758.25;5014170;28;20131;-80
2021/08/28 06:00:15;;;;;;;9.00;7.55;;;;;;;13.25;100.00;100760.47;5051511;28;20075;-79
2021/08/28 06:02:42;;;;;;;11.13;8.27;;;;;;;13.37;100.00;100756.13;5035814;28;20045;-79
2021/08/28 06:05:11;;;;;;;8.52;6.95;;;;;;;13.45;100.00;100761.75;5034153;28;20055;-80
2021/08/28 06:07:38;;;;;;;8.30;6.63;;;;;;;13.52;100.00;100764.84;5036856;28;20486;-79
2021/08/28 06:10:06;;;;;;;7.32;6.45;;;;;;;13.38;100.00;100769.25;5039973;28;20077;-79
2021/08/28 06:12:35;;;;;;;9.60;7.18;;;;;;;13.48;100.00;100758.91;5036648;28;20132;-79
2021/08/28 06:15:05;;;;;;;9.80;7.32;;;;;;;13.20;100.00;100767.84;5031317;28;20061;-80
2021/08/28 06:17:33;;;;;;;8.88;6.30;;;;;;;13.17;100.00;100770.69;5035128;28;20179;-79
2021/08/28 06:20:00;;;;;;;11.60;7.40;;;;;;;13.06;100.00;100767.94;5033375;28;20052;-78
2021/08/28 06:22:27;;;;;;;10.48;7.13;;;;;;;13.10;100.00;100764.97;5027082;28;20445;-78
2021/08/28 06:24:55;;;;;;;8.10;6.53;;;;;;;12.95;100.00;100765.13;5024326;28;20069;-79
2021/08/28 06:27:22;;;;;;;12.75;6.65;;;;;;;12.86;100.00;100766.59;5049486;28;20318;-79
2021/08/28 06:29:49;;;;;;;7.82;6.20;;;;;;;13.05;100.00;100772.34;5046994;28;20069;-78
2021/08/28 06:32:16;;;;;;;8.25;6.43;;;;;;;13.12;100.00;100767.50;5031587;28;20045;-80
2021/08/28 06:34:43;;;;;;;7.55;5.88;;;;;;;13.04;100.00;100765.38;5047812;28;20148;-78
2021/08/28 06:37:11;;;;;;;7.68;5.97;;;;;;;13.14;100.00;100763.78;5034811;28;20060;-79
2021/08/28 06:39:38;;;;;;;8.68;5.78;;;;;;;13.04;100.00;100769.81;5045329;28;20049;-80
2021/08/28 06:42:06;;;;;;;9.02;6.13;;;;;;;13.28;100.00;100765.53;5049343;28;20063;-80
2021/08/28 06:44:33;;;;;;;8.18;6.35;;;;;;;13.17;100.00;100765.41;5031506;28;20136;-80
2021/08/28 06:47:01;;;;;;;9.23;5.88;;;;;;;13.27;100.00;100779.72;5039183;28;20518;-78
2021/08/28 06:49:28;;;;;;;11.70;7.45;;;;;;;13.43;100.00;100769.78;5014174;28;20362;-79
2021/08/28 06:51:55;;;;;;;6.72;5.60;;;;;;;13.65;100.00;100774.47;5007697;28;20571;-79
2021/08/28 06:54:22;;;;;;;9.63;5.43;;;;;;;13.83;100.00;100774.13;5050256;28;20442;-79
2021/08/28 06:56:50;;;;;;;7.60;5.47;;;;;;;13.67;100.00;100776.97;5030092;28;20579;-78
2021/08/28 06:59:17;;;;;;;6.75;5.22;;;;;;;13.33;100.00;100776.66;5026912;28;20244;-79
2021/08/28 07:01:44;;;;;;;9.35;6.07;;;;;;;13.55;100.00;100769.88;5036250;28;20036;-78
2021/08/28 07:04:12;;;;;;;8.18;5.38;;;;;;;13.60;100.00;100776.56;5036431;28;20591;-79
2021/08/28 07:06:39;;;;;;;11.07;5.63;;;;;;;13.87;100.00;100784.38;5048965;28;20496;-80
2021/08/28 07:09:06;;;;;;;7.35;5.13;;;;;;;14.15;100.00;100775.34;5045904;28;20124;-80
2021/08/28 07:11:34;;;;;;;7.68;4.97;;;;;;;14.36;100.00;100777.38;5020711;28;20098;-80
2021/08/28 07:14:01;;;;;;;6.35;4.20;;;;;;;14.40;100.00;100778.84;5011629;28;20128;-80
2021/08/28 07:16:28;;;;;;;4.82;3.75;;;;;;;14.42;100.00;100779.59;5017014;28;20052;-79
2021/08/28 07:18:55;;;;;;;4.53;3.83;;;;;;;14.58;100.00;100772.25;5029055;28;20544;-79
2021/08/28 07:21:23;;;;;;;6.72;4.13;;;;;;;14.63;100.00;100771.91;5045114;28;20127;-77
2021/08/28 07:23:50;;;;;;;7.07;5.00;;;;;;;14.42;100.00;100774.31;5048519;28;20444;-78
2021/08/28 07:26:17;;;;;;;7.00;4.70;;;;;;;14.32;100.00;100771.50;5029365;28;20052;-78
2021/08/28 07:28:44;;;;;;;7.00;5.28;;;;;;;14.45;100.00;100782.00;5049751;28;20144;-79
2021/08/28 07:31:12;;;;;;;6.00;4.40;;;;;;;14.24;100.00;100779.13;5031918;28;20047;-79
2021/08/28 07:33:39;;;;;;;5.25;4.07;;;;;;;14.21;100.00;100771.41;5042892;28;20115;-79
2021/08/28 07:36:07;;;;;;;8.43;4.03;;;;;;;14.48;100.00;100770.38;5029092;28;20099;-81
2021/08/28 07:38:34;;;;;;;5.60;4.00;;;;;;;14.54;100.00;100776.06;5025532;28;20508;-79
2021/08/28 07:41:01;;;;;;;4.18;3.50;;;;;;;14.56;100.00;100774.19;5036711;28;20049;-79
2021/08/28 07:43:29;;;;;;;4.65;4.18;;;;;;;14.30;100.00;100783.13;4995288;28;20428;-79
2021/08/28 07:45:58;;;;;;;4.50;3.80;;;;;;;14.26;100.00;100779.84;5018297;28;20071;-79
2021/08/28 07:48:25;;;;;;;9.45;5.78;;;;;;;14.26;100.00;100786.94;5012335;28;20144;-80
2021/08/28 07:50:52;;;;;;;6.13;4.38;;;;;;;14.54;100.00;100789.31;5008603;28;20330;-80
2021/08/28 07:53:20;;;;;;;4.88;4.03;;;;;;;14.77;100.00;100792.97;5010667;28;20513;-79
2021/08/28 07:55:47;;;;;;;5.15;4.22;;;;;;;14.84;100.00;100788.88;5019549;28;20052;-79
2021/08/28 07:58:14;;;;;;;4.82;3.65;;;;;;;14.76;100.00;100790.41;5048288;28;20405;-79
2021/08/28 08:00:41;;;;;;;5.45;3.88;;;;;;;14.83;100.00;100792.50;5028848;28;20465;-81
2021/08/28 08:03:09;;;;;;;6.32;4.28;;;;;;;14.51;100.00;100796.66;5029405;28;20209;-79
2021/08/28 08:05:36;;;;;;;5.38;3.67;;;;;;;14.83;100.00;100800.44;5012460;28;20049;-79
2021/08/28 08:08:03;;;;;;;5.07;4.35;;;;;;;14.71;100.00;100800.50;5036181;28;20079;-78
2021/08/28 08:10:31;;;;;;;9.48;5.35;;;;;;;14.74;100.00;100795.81;5019396;28;20065;-79
2021/08/28 08:12:58;;;;;;;6.68;4.90;;;;;;;14.63;100.00;100790.47;5014225;28;20051;-78
2021/08/28 08:15:27;;;;;;;4.63;4.10;;;;;;;14.60;100.00;100796.00;5027894;28;20132;-78
2021/08/28 08:17:54;;;;;;;5.80;4.10;;;;;;;14.58;100.00;100798.75;5029507;28;20076;-78
2021/08/28 08:20:22;;;;;;;8.05;4.57;;;;;;;14.91;100.00;100794.59;5015484;28;20147;-80
2021/08/28 08:22:49;;;;;;;5.40;3.65;;;;;;;15.15;100.00;100802.50;5033317;28;20104;-79
2021/08/28 08:25:16;;;;;;;8.15;4.22;;;;;;;15.11;99.51;100812.50;5043587;28;20091;-80
2021/08/28 08:27:44;;;;;;;6.18;4.47;;;;;;;15.13;99.97;100810.59;5029648;28;20153;-80
2021/08/28 08:30:11;;;;;;;5.00;4.32;;;;;;;15.14;99.72;100808.78;5010108;28;20440;-79
2021/08/28 08:32:38;;;;;;;9.13;4.53;;;;;;;15.10;98.63;100807.31;5033886;28;20091;-79
2021/08/28 08:35:06;;;;;;;5.65;3.72;;;;;;;14.96;98.65;100807.50;5034794;28;20041;-78
2021/08/28 08:37:33;;;;;;;7.38;4.72;;;;;;;14.99;99.40;100812.56;5034248;28;20158;-79
2021/08/28 08:40:02;;;;;;;6.10;3.78;;;;;;;14.99;98.99;100810.75;5044804;28;20103;-79
2021/08/28 08:42:29;;;;;;;5.97;4.13;;;;;;;15.18;98.65;100810.25;4995568;28;20455;-78
2021/08/28 08:44:57;;;;;;;4.63;3.70;;;;;;;15.19;99.26;100810.13;5030197;28;20037;-82
2021/08/28 08:47:25;;;;;;;5.43;4.10;;;;;;;15.59;97.18;100809.75;5025236;28;20045;-80
2021/08/28 08:49:52;;;;;;;9.75;3.83;;;;;;;15.83;94.20;100804.34;5033937;28;20080;-79
2021/08/28 08:52:20;;;;;;;5.90;3.70;;;;;;;15.87;92.96;100799.66;5023065;28;20164;-79
2021/08/28 08:54:51;;;;;;;11.98;3.50;;;;;;;16.17;91.19;100801.72;5010112;28;20045;-79
2021/08/28 08:57:18;;;;;;;3.65;3.17;;;;;;;16.44;89.54;100798.66;5029013;28;20117;-79
2021/08/28 08:59:46;;;;;;;5.28;2.90;;;;;;;16.87;86.68;100803.16;5026164;28;20072;-78
2021/08/28 09:02:13;;;;;;;5.35;3.42;;;;;;;16.82;85.88;100800.88;5043915;28;20137;-77
2021/08/28 09:04:40;;;;;;;6.45;4.65;;;;;;;16.71;84.81;100804.38;5034056;28;20127;-78
2021/08/28 09:07:12;;;;;;;3.65;2.35;;;;;;;16.73;84.04;100814.91;5048247;28;20499;-78
2021/08/28 09:09:40;;;;;;;4.28;2.50;;;;;;;16.61;84.45;100814.06;5027986;28;20126;-79
2021/08/28 09:12:11;;;;;;;4.38;3.03;;;;;;;16.20;86.31;100807.59;5031938;28;20616;-81
2021/08/28 09:14:39;;;;;;;2.92;2.65;;;;;;;16.55;84.57;100816.38;5029042;28;20227;-79
2021/08/28 09:17:20;;;;;;;5.15;2.53;;;;;;;16.63;83.51;100817.44;5013649;28;20072;-78
2021/08/28 09:19:49;;;;;;;4.47;3.25;;;;;;;16.50;84.31;100818.56;5014968;28;20449;-80
2021/08/28 09:22:23;;;;;;;6.15;3.03;;;;;;;16.17;87.00;100822.97;5000105;28;20045;-78
2021/08/28 09:24:51;;;;;;;4.70;3.15;;;;;;;16.17;86.88;100817.66;5024490;28;20128;-80
2021/08/28 09:27:43;;;;;;;4.03;3.30;;;;;;;16.22;86.99;100814.63;5031719;28;20194;-80
2021/08/28 09:30:23;;;;;;;5.55;3.72;;;;;;;16.49;85.42;100820.38;5012751;28;20063;-80
2021/08/28 09:33:02;;;;;;;6.95;3.53;;;;;;;16.35;85.72;100823.31;5011108;28;20060;-80
2021/08/28 09:35:39;;;;;;;4.88;3.20;;;;;;;16.05;86.85;100819.47;5029708;28;20131;-78
2021/08/28 09:38:11;;;;;;;3.90;2.58;;;;;;;16.40;83.95;100818.47;5050160;28;20425;-80
2021/08/28 09:40:41;;;;;;;4.68;2.60;;;;;;;16.79;83.03;100822.38;5025792;28;20314;-81
2021/08/28 09:43:13;;;;;;;4.60;3.10;;;;;;;17.01;82.24;100821.47;5056766;28;20045;-81
2021/08/28 09:45:41;;;;;;;3.58;2.53;;;;;;;17.56;77.85;100819.50;5049385;28;20049;-80
2021/08/28 09:48:10;;;;;;;4.10;3.10;;;;;;;17.99;76.15;100813.16;5028283;28;20504;-81
2021/08/28 09:50:42;;;;;;;3.70;2.45;;;;;;;17.61;75.57;100819.13;5027173;28;20059;-80
2021/08/28 09:53:23;;;;;;;3.70;2.00;;;;;;;18.35;73.19;100811.75;5017635;28;20069;-79
2021/08/28 09:55:56;;;;;;;4.05;3.13;;;;;;;18.84;70.23;100818.06;5013570;28;20457;-79
2021/08/28 09:58:24;;;;;;;4.80;3.17;;;;;;;18.02;72.57;100818.25;5013052;28;20068;-78
2021/08/28 10:00:52;;;;;;;3.63;2.03;;;;;;;18.30;72.23;100819.31;5030732;28;20068;-79
2021/08/28 10:03:25;;;;;;;4.50;2.70;;;;;;;18.74;70.63;100805.72;5029538;28;20067;-78
2021/08/28 10:05:53;;;;;;;4.35;2.13;;;;;;;19.06;70.00;100811.63;5013375;28;20601;-79
2021/08/28 10:08:21;;;;;;;3.85;2.60;;;;;;;19.58;68.53;100820.09;5030235;28;20071;-79
2021/08/28 10:10:50;;;;;;;6.95;2.85;;;;;;;20.26;64.38;100819.06;5028174;28;20052;-78
2021/08/28 10:13:32;;;;;;;4.18;2.65;;;;;;;20.32;63.18;100815.81;5030463;28;20098;-79
2021/08/28 10:16:00;;;;;;;4.13;2.30;;;;;;;20.29;63.61;100816.94;5032304;28;20475;-79
2021/08/28 10:18:28;;;;;;;3.78;2.40;;;;;;;19.36;67.29;100829.31;5032858;28;20139;-78
2021/08/28 10:20:57;;;;;;;4.00;2.53;;;;;;;19.21;68.34;100823.53;5029547;28;20053;-78
2021/08/28 10:23:26;;;;;;;6.80;2.78;;;;;;;18.33;72.02;100815.56;5024191;28;20133;-79
2021/08/28 10:25:54;;;;;;;3.70;2.38;;;;;;;18.47;71.38;100825.81;5043357;28;20071;-80
2021/08/28 10:28:21;;;;;;;3.03;2.70;;;;;;;18.26;73.25;100820.56;5029233;28;20139;-78
2021/08/28 10:30:49;;;;;;;5.20;2.50;;;;;;;18.10;74.40;100821.09;5029870;28;20073;-77
2021/08/28 10:33:16;;;;;;;6.22;2.70;;;;;;;17.85;74.14;100824.19;5031359;28;20045;-81
2021/08/28 10:35:44;;;;;;;3.97;2.72;;;;;;;17.75;75.05;100825.97;5033624;28;20084;-79
2021/08/28 10:38:12;;;;;;;5.53;2.50;;;;;;;17.79;74.97;100820.22;5037137;28;20048;-79
2021/08/28 10:40:42;;;;;;;5.55;3.45;;;;;;;18.26;74.10;100823.22;5017562;28;20044;-79
2021/08/28 10:43:10;;;;;;;2.85;2.22;;;;;;;18.48;72.04;100822.19;5029270;28;20049;-79
2021/08/28 10:45:38;;;;;;;3.60;2.30;;;;;;;18.62;70.50;100813.78;4999295;28;20124;-80
2021/08/28 10:48:08;;;;;;;4.22;2.50;;;;;;;19.05;69.57;100825.94;5050020;28;20148;-78
2021/08/28 10:50:39;;;;;;;3.47;2.17;;;;;;;19.76;65.62;100811.38;5029161;28;20090;-79
2021/08/28 10:53:08;;;;;;;3.35;1.88;;;;;;;19.48;65.50;100822.81;5032059;28;20120;-82
2021/08/28 10:55:40;;;;;;;4.30;1.98;;;;;;;19.21;67.35;100815.53;5012565;28;20396;-79
2021/08/28 10:58:19;;;;;;;1.92;1.52;;;;;;;19.60;65.80;100819.97;5008255;28;20053;-81
2021/08/28 11:00:48;;;;;;;3.53;1.92;;;;;;;19.71;66.47;100823.34;5037673;28;20067;-79
2021/08/28 11:03:23;;;;;;;3.85;2.90;;;;;;;20.01;64.13;100818.75;5036925;28;20052;-77
2021/08/28 11:06:15;;;;;;;4.72;2.10;;;;;;;19.92;64.41;100828.50;5031670;28;20035;-77
2021/08/28 11:08:45;;;;;;;2.55;1.70;;;;;;;19.52;64.87;100826.03;5042769;28;20049;-79
2021/08/28 11:11:23;;;;;;;2.60;1.77;;;;;;;19.90;64.21;100829.63;5027377;28;20103;-79
2021/08/28 11:14:09;;;;;;;2.45;1.70;;;;;;;20.18;63.70;100825.16;5012533;28;20200;-79
2021/08/28 11:16:39;;;;;;;3.80;1.90;;;;;;;20.24;62.12;100812.03;5013865;28;20033;-79
2021/08/28 11:19:07;;;;;;;3.72;2.83;;;;;;;20.10;62.82;100823.22;5043296;28;20143;-80
2021/08/28 11:21:41;;;;;;;2.90;1.85;;;;;;;20.31;61.71;100814.97;5012199;28;20041;-79